Time;durP1;ratioP1;P1;durP2;ratioP2;P2;SDS_P1;SDS_P2;PMS_P1;PMS_P2;Temp;Humidity;BMP_temperature;BMP_pressure;BME280_temperature;BME280_humidity;BME280_pressure;Samples;Min_cycle;Max_cycle;Signal;HPM_P1;HPM_P2
2021/08/07 00:02:06;;;;;;;3.70;2.53;;;16.00;99.90;;;;;;5047767;28;20029;-70
2021/08/07 00:04:32;;;;;;;4.47;2.90;;;15.90;99.90;;;;;;5047723;28;20047;-69
2021/08/07 00:06:57;;;;;;;8.57;2.70;;;15.90;99.90;;;;;;5047433;28;20025;-69
2021/08/07 00:09:23;;;;;;;6.10;2.50;;;15.90;99.90;;;;;;5047456;28;20044;-70
2021/08/07 00:11:48;;;;;;;3.53;2.53;;;15.90;99.90;;;;;;5046142;28;20045;-69
2021/08/07 00:14:14;;;;;;;4.80;3.00;;;15.90;99.90;;;;;;5046148;28;20029;-70
2021/08/07 00:16:40;;;;;;;6.15;2.72;;;15.90;99.90;;;;;;5046774;28;20081;-69
2021/08/07 00:19:08;;;;;;;9.13;2.75;;;15.90;99.90;;;;;;5047214;28;20030;-69
2021/08/07 00:21:34;;;;;;;4.88;2.42;;;15.90;99.90;;;;;;5047251;28;20112;-70
2021/08/07 00:23:59;;;;;;;7.15;3.38;;;15.90;99.90;;;;;;5047320;28;20034;-70
2021/08/07 00:26:25;;;;;;;3.88;2.60;;;15.90;99.90;;;;;;5046659;28;20067;-70
2021/08/07 00:28:51;;;;;;;3.70;2.67;;;15.90;99.90;;;;;;5047203;28;20029;-69
2021/08/07 00:31:17;;;;;;;5.47;2.95;;;15.90;99.90;;;;;;5046975;28;20048;-70
2021/08/07 00:33:43;;;;;;;5.43;3.00;;;15.90;99.90;;;;;;5047153;28;20394;-70
2021/08/07 00:36:09;;;;;;;4.95;2.70;;;15.90;99.90;;;;;;5047055;28;20076;-70
2021/08/07 00:38:36;;;;;;;5.03;2.90;;;15.80;99.90;;;;;;5047132;28;20045;-69
2021/08/07 00:41:01;;;;;;;21.35;3.28;;;15.90;99.90;;;;;;5047096;28;20029;-68
2021/08/07 00:43:27;;;;;;;7.85;2.90;;;15.80;99.90;;;;;;5047054;28;20033;-71
2021/08/07 00:45:53;;;;;;;5.22;2.70;;;15.80;99.90;;;;;;5046657;28;20082;-69
2021/08/07 00:48:18;;;;;;;6.43;2.97;;;15.80;99.90;;;;;;5046777;28;20029;-69
2021/08/07 00:50:48;;;;;;;4.53;2.55;;;15.90;99.90;;;;;;5046649;28;20106;-70
2021/08/07 00:53:14;;;;;;;5.22;3.10;;;15.80;99.90;;;;;;5046676;28;20026;-69
2021/08/07 00:55:41;;;;;;;4.68;2.78;;;15.80;99.90;;;;;;5046833;28;20056;-71
2021/08/07 00:58:08;;;;;;;5.80;2.88;;;15.80;99.90;;;;;;5046636;28;20021;-69
2021/08/07 01:00:34;;;;;;;3.65;2.65;;;15.70;99.90;;;;;;5046819;28;20033;-69
2021/08/07 01:03:02;;;;;;;6.53;3.35;;;15.80;99.90;;;;;;5046367;28;20072;-69
2021/08/07 01:05:50;;;;;;;4.63;2.80;;;15.70;99.90;;;;;;5044907;28;20037;-69
2021/08/07 01:08:21;;;;;;;4.88;2.72;;;15.80;99.90;;;;;;5046381;28;20092;-70
2021/08/07 01:11:07;;;;;;;5.03;3.10;;;15.80;99.90;;;;;;5046383;28;20405;-69
2021/08/07 01:13:48;;;;;;;6.30;3.38;;;15.70;99.90;;;;;;5046596;28;20029;-69
2021/08/07 01:16:28;;;;;;;4.55;2.38;;;15.70;99.90;;;;;;5045835;28;20056;-71
2021/08/07 01:18:55;;;;;;;7.03;3.58;;;15.70;99.90;;;;;;5044911;28;20029;-69
2021/08/07 01:21:33;;;;;;;14.65;3.70;;;15.60;99.90;;;;;;5045477;28;20021;-70
2021/08/07 01:24:13;;;;;;;8.85;4.00;;;15.60;99.90;;;;;;5044816;28;20034;-70
2021/08/07 01:26:54;;;;;;;5.57;3.30;;;15.60;99.90;;;;;;5046315;28;20032;-69
2021/08/07 01:29:20;;;;;;;3.28;2.55;;;15.60;99.90;;;;;;5044191;28;20107;-69
2021/08/07 01:31:47;;;;;;;9.10;3.13;;;15.60;99.90;;;;;;5048898;28;20045;-70
2021/08/07 01:34:14;;;;;;;5.93;3.10;;;15.60;99.90;;;;;;5046059;28;20080;-70
2021/08/07 01:36:40;;;;;;;5.95;3.33;;;15.50;99.90;;;;;;5059026;28;20414;-71
2021/08/07 01:39:08;;;;;;;6.53;3.30;;;15.60;99.90;;;;;;5065932;28;20021;-71
2021/08/07 01:41:34;;;;;;;5.72;3.42;;;15.50;99.90;;;;;;5066031;28;20029;-69
2021/08/07 01:44:00;;;;;;;8.27;3.60;;;15.50;99.90;;;;;;5065818;28;20017;-71
2021/08/07 01:46:43;;;;;;;5.10;3.05;;;15.50;99.90;;;;;;5065805;28;20087;-70
2021/08/07 01:49:14;;;;;;;8.82;3.28;;;15.50;99.90;;;;;;5045737;28;20021;-71
2021/08/07 01:51:48;;;;;;;11.50;3.53;;;15.50;99.90;;;;;;5045511;28;20060;-72
2021/08/07 01:54:19;;;;;;;4.97;3.00;;;15.50;99.90;;;;;;5045540;28;20029;-71
2021/08/07 01:56:47;;;;;;;13.45;3.50;;;15.50;99.90;;;;;;5045574;28;20033;-70
2021/08/07 01:59:18;;;;;;;4.35;2.95;;;15.40;99.90;;;;;;5045501;28;20036;-70
2021/08/07 02:01:47;;;;;;;4.63;3.00;;;15.40;99.90;;;;;;5045746;28;20044;-71
2021/08/07 02:04:19;;;;;;;4.07;2.80;;;15.40;99.90;;;;;;5045322;28;20045;-71
2021/08/07 02:06:47;;;;;;;5.30;3.15;;;15.40;99.90;;;;;;5045314;28;20027;-71
2021/08/07 02:09:17;;;;;;;6.60;3.17;;;15.40;99.90;;;;;;5045249;28;20017;-71
2021/08/07 02:11:47;;;;;;;11.88;3.90;;;15.40;99.90;;;;;;5045514;28;20082;-69
2021/08/07 02:14:15;;;;;;;7.68;3.67;;;15.40;99.90;;;;;;5045053;28;20025;-68
2021/08/07 02:16:45;;;;;;;8.10;3.38;;;15.40;99.90;;;;;;5044913;28;20061;-68
2021/08/07 02:19:12;;;;;;;8.80;4.05;;;15.40;99.90;;;;;;5045130;28;20473;-70
2021/08/07 02:21:39;;;;;;;8.55;3.63;;;15.30;99.90;;;;;;5045032;28;20028;-70
2021/08/07 02:24:05;;;;;;;4.82;3.22;;;15.40;99.90;;;;;;5043897;28;20099;-72
2021/08/07 02:26:31;;;;;;;7.20;3.42;;;15.40;99.90;;;;;;5044880;28;20470;-70
2021/08/07 02:28:57;;;;;;;6.28;3.40;;;15.40;99.90;;;;;;5060219;28;20029;-70
2021/08/07 02:31:24;;;;;;;3.95;2.90;;;15.40;99.90;;;;;;5044802;28;20038;-71
2021/08/07 02:33:51;;;;;;;4.55;3.17;;;15.30;99.90;;;;;;5060211;28;20034;-70
2021/08/07 02:36:17;;;;;;;6.18;3.70;;;15.40;99.90;;;;;;5044572;28;20022;-71
2021/08/07 02:38:47;;;;;;;19.77;3.28;;;15.40;99.90;;;;;;5044908;28;20022;-72
2021/08/07 02:41:13;;;;;;;5.68;3.33;;;15.40;99.90;;;;;;5043430;28;20057;-74
2021/08/07 02:43:40;;;;;;;6.65;3.80;;;15.30;99.90;;;;;;5044649;28;20092;-71
2021/08/07 02:46:10;;;;;;;9.93;3.55;;;15.40;99.90;;;;;;5044882;28;20025;-70
2021/08/07 02:48:37;;;;;;;5.47;3.13;;;15.30;99.90;;;;;;5044831;28;20059;-71
2021/08/07 02:51:03;;;;;;;5.55;2.97;;;15.20;99.90;;;;;;5044715;28;20045;-73
2021/08/07 02:53:30;;;;;;;9.35;3.25;;;15.30;99.90;;;;;;5044436;28;20022;-69
2021/08/07 02:55:56;;;;;;;5.38;2.88;;;15.20;99.90;;;;;;5044668;28;20065;-70
2021/08/07 02:58:22;;;;;;;4.60;2.50;;;15.20;99.90;;;;;;5044265;28;20029;-71
2021/08/07 03:00:48;;;;;;;5.53;3.17;;;15.20;99.90;;;;;;5043213;28;20433;-70
2021/08/07 03:03:14;;;;;;;5.10;2.80;;;15.20;99.90;;;;;;5043299;28;20044;-71
2021/08/07 03:05:42;;;;;;;6.32;3.38;;;15.20;99.90;;;;;;5044725;28;20048;-71
2021/08/07 03:08:12;;;;;;;8.38;3.55;;;15.10;99.90;;;;;;5044615;28;20089;-71
2021/08/07 03:10:39;;;;;;;5.95;3.58;;;15.10;99.90;;;;;;5044575;28;20061;-72
2021/08/07 03:13:04;;;;;;;7.38;3.58;;;15.10;99.90;;;;;;5044707;28;20101;-70
2021/08/07 03:15:30;;;;;;;5.63;3.55;;;15.20;99.90;;;;;;5044038;28;20025;-70
2021/08/07 03:17:56;;;;;;;5.25;3.03;;;15.20;99.90;;;;;;5043476;28;20037;-70
2021/08/07 03:20:30;;;;;;;8.02;4.43;;;15.10;99.90;;;;;;5043322;28;20028;-70
2021/08/07 03:22:58;;;;;;;5.00;3.22;;;15.10;99.90;;;;;;5043417;28;20087;-71
2021/08/07 03:25:24;;;;;;;6.63;3.65;;;15.10;99.90;;;;;;5043416;28;20032;-71
2021/08/07 03:27:49;;;;;;;6.15;3.50;;;15.10;99.90;;;;;;5043466;28;20026;-71
2021/08/07 03:30:15;;;;;;;16.27;3.92;;;15.10;99.90;;;;;;5043139;28;20054;-71
2021/08/07 03:32:41;;;;;;;5.20;3.47;;;15.20;99.90;;;;;;5043545;28;20084;-71
2021/08/07 03:35:07;;;;;;;7.22;4.22;;;15.10;99.90;;;;;;5042154;28;20037;-71
2021/08/07 03:37:33;;;;;;;9.60;3.83;;;15.10;99.90;;;;;;5043267;28;20025;-69
2021/08/07 03:39:58;;;;;;;5.68;3.83;;;15.10;99.90;;;;;;5042062;28;20064;-70
2021/08/07 03:42:24;;;;;;;6.95;4.50;;;15.20;99.90;;;;;;5042898;28;20032;-68
2021/08/07 03:44:50;;;;;;;8.25;4.57;;;15.10;99.90;;;;;;5043403;28;20026;-69
2021/08/07 03:47:16;;;;;;;6.40;4.00;;;15.10;99.90;;;;;;5043203;28;20025;-69
2021/08/07 03:49:42;;;;;;;8.32;4.18;;;15.10;99.90;;;;;;5042980;28;20029;-68
2021/08/07 03:52:09;;;;;;;6.75;4.20;;;15.00;99.90;;;;;;5043164;28;20112;-69
2021/08/07 03:54:35;;;;;;;10.20;4.80;;;15.10;99.90;;;;;;5046339;28;20581;-69
2021/08/07 03:57:00;;;;;;;6.88;4.40;;;15.10;99.90;;;;;;5044903;28;20027;-68
2021/08/07 03:59:26;;;;;;;7.97;4.47;;;15.10;99.90;;;;;;5046242;28;20030;-69
2021/08/07 04:01:52;;;;;;;7.10;3.90;;;15.10;99.90;;;;;;5046434;28;20025;-69
2021/08/07 04:04:17;;;;;;;7.57;4.85;;;15.10;99.90;;;;;;5046270;28;20108;-70
2021/08/07 04:06:47;;;;;;;8.80;4.97;;;15.10;99.90;;;;;;5046326;28;20478;-70
2021/08/07 04:09:16;;;;;;;7.15;4.15;;;15.10;99.90;;;;;;5045934;28;20398;-71
2021/08/07 04:11:41;;;;;;;10.38;4.55;;;15.10;99.90;;;;;;5045975;28;20029;-69
2021/08/07 04:14:07;;;;;;;11.02;3.90;;;15.10;99.90;;;;;;5046553;28;20037;-72
2021/08/07 04:16:34;;;;;;;8.13;5.07;;;15.10;99.90;;;;;;5008038;28;1100679;-69
2021/08/07 04:19:00;;;;;;;7.90;4.68;;;15.10;99.90;;;;;;5047205;28;20041;-68
2021/08/07 04:21:25;;;;;;;8.02;4.75;;;15.10;99.90;;;;;;5047162;28;20029;-69
2021/08/07 04:23:51;;;;;;;7.00;4.28;;;15.10;99.90;;;;;;5047228;28;20022;-69
2021/08/07 04:26:16;;;;;;;12.27;5.13;;;15.10;99.90;;;;;;5062528;28;20175;-70
2021/08/07 04:28:42;;;;;;;12.50;4.72;;;15.10;99.90;;;;;;5047272;28;20036;-70
2021/08/07 04:31:08;;;;;;;10.05;4.57;;;15.10;99.90;;;;;;5047090;28;20040;-70
2021/08/07 04:33:34;;;;;;;7.60;4.82;;;15.10;99.90;;;;;;5045926;28;20039;-70
2021/08/07 04:36:02;;;;;;;8.25;4.70;;;15.10;99.90;;;;;;5046905;28;20032;-70
2021/08/07 04:38:27;;;;;;;6.72;4.80;;;15.10;99.90;;;;;;5068624;28;20025;-70
2021/08/07 04:40:53;;;;;;;7.35;4.50;;;15.20;99.90;;;;;;5059013;28;20089;-70
2021/08/07 04:43:19;;;;;;;9.60;5.18;;;15.20;99.90;;;;;;5046883;28;20026;-70
2021/08/07 04:45:44;;;;;;;13.88;6.15;;;15.20;99.90;;;;;;5046842;28;20026;-69
2021/08/07 04:48:10;;;;;;;7.25;5.05;;;15.20;99.90;;;;;;5046950;28;20022;-71
2021/08/07 04:50:37;;;;;;;7.72;4.95;;;15.20;99.90;;;;;;5046593;28;20034;-72
2021/08/07 04:53:04;;;;;;;8.75;5.03;;;15.20;99.90;;;;;;5046771;28;20068;-70
2021/08/07 04:55:29;;;;;;;8.70;5.25;;;15.30;99.90;;;;;;5046689;28;20811;-69
2021/08/07 04:57:55;;;;;;;6.47;4.20;;;15.20;99.90;;;;;;5046428;28;20053;-69
2021/08/07 05:00:22;;;;;;;7.70;4.13;;;15.30;99.90;;;;;;5061859;28;20036;-70
2021/08/07 05:02:47;;;;;;;7.00;4.40;;;15.30;99.90;;;;;;5045258;28;20021;-72
2021/08/07 05:05:15;;;;;;;10.15;4.97;;;15.30;99.90;;;;;;5045083;28;20060;-71
2021/08/07 05:07:42;;;;;;;14.95;5.72;;;15.30;99.90;;;;;;5063930;28;20033;-70
2021/08/07 05:10:10;;;;;;;13.48;5.25;;;15.30;99.90;;;;;;5066566;28;20068;-70
2021/08/07 05:12:36;;;;;;;8.23;5.30;;;15.30;99.90;;;;;;5065040;28;20386;-72
2021/08/07 05:15:01;;;;;;;9.65;5.38;;;15.40;99.90;;;;;;5066310;28;20028;-71
2021/08/07 05:17:27;;;;;;;6.28;3.95;;;15.40;99.90;;;;;;5065941;28;20052;-70
2021/08/07 05:19:54;;;;;;;11.15;5.60;;;15.40;99.90;;;;;;5066135;28;20085;-71
2021/08/07 05:22:21;;;;;;;9.57;4.85;;;15.40;99.90;;;;;;5066044;28;20036;-71
2021/08/07 05:24:47;;;;;;;7.55;4.28;;;15.40;99.90;;;;;;5064605;28;20036;-69
2021/08/07 05:27:13;;;;;;;9.90;5.20;;;15.40;99.90;;;;;;5066300;28;20029;-70
2021/08/07 05:29:39;;;;;;;9.88;5.43;;;15.40;99.90;;;;;;5066087;28;20025;-71
2021/08/07 05:32:05;;;;;;;11.18;5.85;;;15.50;99.90;;;;;;5063087;28;20041;-71
2021/08/07 05:34:30;;;;;;;10.57;6.50;;;15.50;99.90;;;;;;5051216;28;20056;-69
2021/08/07 05:36:56;;;;;;;9.60;5.75;;;15.60;99.90;;;;;;5051633;28;20087;-72
2021/08/07 05:39:22;;;;;;;7.95;5.10;;;15.50;99.90;;;;;;5065740;28;20029;-70
2021/08/07 05:41:48;;;;;;;9.93;5.75;;;15.60;99.90;;;;;;5052726;28;20021;-69
2021/08/07 05:44:13;;;;;;;12.48;5.57;;;15.60;99.90;;;;;;5051369;28;20033;-69
2021/08/07 05:46:39;;;;;;;11.35;6.03;;;15.60;99.90;;;;;;5062341;28;20026;-71
2021/08/07 05:49:05;;;;;;;10.85;5.75;;;15.60;99.90;;;;;;5049240;28;20109;-71
2021/08/07 05:51:34;;;;;;;15.20;6.75;;;15.70;99.90;;;;;;5060748;28;20042;-69
2021/08/07 05:54:03;;;;;;;12.82;5.53;;;15.70;99.90;;;;;;5045552;28;20093;-69
2021/08/07 05:56:28;;;;;;;8.98;5.28;;;15.70;99.90;;;;;;5060981;28;20029;-69
2021/08/07 05:58:54;;;;;;;11.52;5.80;;;15.70;99.90;;;;;;5045734;28;20104;-71
2021/08/07 06:01:20;;;;;;;11.05;6.00;;;15.80;99.90;;;;;;5045466;28;20044;-71
2021/08/07 06:03:45;;;;;;;10.60;6.10;;;15.80;99.90;;;;;;5060627;28;20029;-70
2021/08/07 06:06:11;;;;;;;10.48;5.78;;;15.90;99.90;;;;;;5045372;28;20113;-72
2021/08/07 06:08:37;;;;;;;14.20;5.20;;;15.90;99.90;;;;;;5045366;28;20025;-70
2021/08/07 06:11:03;;;;;;;13.35;4.53;;;16.00;99.90;;;;;;5045335;28;20060;-69
2021/08/07 06:13:29;;;;;;;8.20;5.10;;;16.10;99.90;;;;;;5045177;28;20505;-69
2021/08/07 06:15:54;;;;;;;11.75;5.55;;;16.10;99.90;;;;;;5044776;28;20061;-69
2021/08/07 06:18:20;;;;;;;10.02;5.57;;;16.20;99.90;;;;;;5045035;28;20029;-68
2021/08/07 06:20:50;;;;;;;13.73;4.93;;;16.20;99.90;;;;;;5045240;28;20079;-72
2021/08/07 06:23:17;;;;;;;11.35;5.53;;;16.20;99.90;;;;;;5045472;28;20045;-73
2021/08/07 06:25:43;;;;;;;14.07;5.55;;;16.30;99.90;;;;;;5045335;28;20033;-71
2021/08/07 06:28:09;;;;;;;11.77;5.65;;;16.40;99.90;;;;;;5060505;28;20363;-71
2021/08/07 06:30:35;;;;;;;18.40;5.32;;;16.40;99.90;;;;;;5060213;28;20044;-72
2021/08/07 06:33:04;;;;;;;11.18;5.97;;;16.40;99.90;;;;;;5044856;28;20108;-71
2021/08/07 06:35:30;;;;;;;10.48;5.65;;;16.40;99.90;;;;;;5044843;28;20022;-70
2021/08/07 06:37:56;;;;;;;17.42;5.53;;;16.50;99.90;;;;;;5047652;28;20101;-69
2021/08/07 06:40:22;;;;;;;9.75;5.25;;;16.50;99.90;;;;;;5061168;28;20025;-73
2021/08/07 06:42:48;;;;;;;11.45;5.18;;;16.50;99.90;;;;;;5044806;28;20049;-71
2021/08/07 06:45:14;;;;;;;12.35;6.18;;;16.50;99.90;;;;;;5044127;28;20064;-73
2021/08/07 06:47:40;;;;;;;11.88;5.85;;;16.50;99.90;;;;;;5043521;28;20040;-70
2021/08/07 06:50:19;;;;;;;12.63;5.35;;;16.50;99.90;;;;;;5047582;28;20059;-69
2021/08/07 06:52:46;;;;;;;9.30;4.85;;;16.50;99.90;;;;;;5053298;28;20036;-71
2021/08/07 06:55:15;;;;;;;7.47;5.18;;;16.60;99.90;;;;;;5058339;28;20025;-70
2021/08/07 06:57:41;;;;;;;9.98;5.20;;;16.60;99.90;;;;;;5059975;28;20025;-70
2021/08/07 07:00:12;;;;;;;8.07;4.57;;;16.60;99.90;;;;;;5044897;28;20393;-70
2021/08/07 07:02:40;;;;;;;14.52;4.78;;;16.60;99.90;;;;;;5044260;28;20077;-69
2021/08/07 07:05:14;;;;;;;8.20;4.40;;;16.60;99.90;;;;;;5065913;28;20037;-71
2021/08/07 07:07:40;;;;;;;11.80;4.65;;;16.60;99.90;;;;;;5070964;28;20421;-73
2021/08/07 07:10:13;;;;;;;6.68;4.32;;;16.60;99.90;;;;;;5048432;28;20059;-71
2021/08/07 07:12:45;;;;;;;7.53;4.15;;;16.60;99.90;;;;;;5050046;28;20038;-72
2021/08/07 07:15:12;;;;;;;10.57;5.25;;;16.60;99.90;;;;;;5064418;28;20526;-71
2021/08/07 07:17:41;;;;;;;10.55;4.90;;;16.70;99.90;;;;;;5059942;28;20053;-70
2021/08/07 07:20:09;;;;;;;16.98;4.30;;;16.70;99.90;;;;;;5045088;28;20029;-72
2021/08/07 07:22:34;;;;;;;19.23;3.75;;;16.70;99.90;;;;;;5050160;28;20040;-71
2021/08/07 07:25:00;;;;;;;6.75;4.00;;;16.80;99.90;;;;;;5058369;28;20168;-72
2021/08/07 07:27:32;;;;;;;11.18;5.25;;;16.90;99.90;;;;;;5051222;28;20029;-68
2021/08/07 07:29:58;;;;;;;6.57;4.05;;;16.80;99.90;;;;;;5048950;28;20397;-71
2021/08/07 07:32:23;;;;;;;9.27;4.20;;;17.00;99.90;;;;;;5065871;28;20044;-72
2021/08/07 07:34:49;;;;;;;8.98;4.60;;;17.00;99.90;;;;;;5067566;28;20051;-70
2021/08/07 07:37:15;;;;;;;9.02;4.35;;;17.00;99.90;;;;;;5068113;28;20055;-69
2021/08/07 07:39:43;;;;;;;12.93;5.03;;;17.00;99.90;;;;;;5066083;28;20103;-68
2021/08/07 07:42:11;;;;;;;10.60;3.85;;;17.10;99.90;;;;;;5067255;28;20037;-74
2021/08/07 07:44:40;;;;;;;5.55;3.45;;;17.20;99.90;;;;;;5067645;28;20048;-73
2021/08/07 07:47:07;;;;;;;5.55;3.38;;;17.20;99.90;;;;;;5068045;28;20059;-70
2021/08/07 07:49:32;;;;;;;9.10;3.38;;;17.30;99.90;;;;;;5065163;28;20053;-69
2021/08/07 07:51:58;;;;;;;6.38;2.60;;;17.40;99.90;;;;;;5066983;28;20052;-70
2021/08/07 07:54:23;;;;;;;10.35;2.75;;;17.40;99.90;;;;;;5067216;28;20029;-70
2021/08/07 07:56:52;;;;;;;11.98;2.78;;;17.40;99.90;;;;;;5065240;28;20036;-72
2021/08/07 07:59:18;;;;;;;7.25;3.05;;;17.40;99.90;;;;;;5050857;28;20040;-69
2021/08/07 08:01:44;;;;;;;7.55;3.25;;;17.60;99.90;;;;;;5064947;28;20033;-69
2021/08/07 08:04:10;;;;;;;8.20;2.85;;;17.60;99.90;;;;;;5067632;28;20036;-71
2021/08/07 08:06:36;;;;;;;9.20;3.60;;;17.80;99.90;;;;;;5066701;28;20094;-72
2021/08/07 08:09:01;;;;;;;7.50;4.07;;;17.90;99.90;;;;;;5066301;28;20025;-69
2021/08/07 08:11:27;;;;;;;6.57;3.30;;;17.90;99.90;;;;;;5066073;28;20044;-69
2021/08/07 08:13:53;;;;;;;6.43;3.85;;;18.00;99.90;;;;;;5066155;28;20032;-71
2021/08/07 08:16:19;;;;;;;6.75;3.45;;;18.00;99.90;;;;;;5067221;28;20060;-69
2021/08/07 08:18:45;;;;;;;9.48;3.63;;;18.00;99.90;;;;;;5066250;28;20025;-72
2021/08/07 08:21:11;;;;;;;8.02;3.35;;;18.10;99.90;;;;;;5067271;28;20036;-69
2021/08/07 08:23:39;;;;;;;4.90;2.83;;;18.20;99.90;;;;;;5067362;28;20032;-68
2021/08/07 08:26:04;;;;;;;5.40;3.25;;;18.20;99.90;;;;;;5060966;28;20083;-67
2021/08/07 08:28:30;;;;;;;4.45;3.22;;;18.40;99.90;;;;;;5065779;28;20033;-73
2021/08/07 08:30:56;;;;;;;6.40;3.60;;;18.50;99.90;;;;;;5051616;28;20352;-71
2021/08/07 08:33:22;;;;;;;8.88;3.45;;;18.60;99.90;;;;;;5047226;28;20052;-69
2021/08/07 08:35:47;;;;;;;4.95;3.13;;;18.50;99.90;;;;;;5047183;28;20025;-68
2021/08/07 08:38:15;;;;;;;5.75;3.45;;;18.50;99.90;;;;;;5058246;28;20029;-69
2021/08/07 08:40:42;;;;;;;8.75;3.53;;;18.50;99.90;;;;;;5058149;28;20021;-70
2021/08/07 08:43:08;;;;;;;7.78;3.50;;;18.60;99.90;;;;;;5065675;28;20025;-73
2021/08/07 08:45:34;;;;;;;9.45;3.17;;;18.70;99.90;;;;;;5049598;28;20033;-71
2021/08/07 08:48:01;;;;;;;7.28;3.08;;;18.80;99.90;;;;;;5045537;28;20026;-72
2021/08/07 08:50:27;;;;;;;4.30;2.85;;;18.90;99.90;;;;;;5046674;28;20550;-71
2021/08/07 08:52:57;;;;;;;5.55;3.10;;;19.00;99.90;;;;;;5046688;28;20021;-73
2021/08/07 08:55:22;;;;;;;5.75;3.00;;;18.90;99.90;;;;;;5046649;28;20029;-72
2021/08/07 08:57:48;;;;;;;7.13;2.88;;;19.00;99.90;;;;;;5045355;28;20025;-70
2021/08/07 09:00:15;;;;;;;4.47;2.53;;;19.10;99.90;;;;;;5045191;28;20083;-71
2021/08/07 09:02:42;;;;;;;7.63;2.60;;;19.10;99.90;;;;;;5046607;28;20083;-71
2021/08/07 09:05:10;;;;;;;5.75;2.80;;;19.00;99.90;;;;;;5046667;28;20025;-72
2021/08/07 09:07:39;;;;;;;3.55;2.20;;;19.10;99.90;;;;;;5046569;28;20099;-71
2021/08/07 09:10:05;;;;;;;3.72;2.15;;;19.20;99.90;;;;;;5046700;28;20021;-72
2021/08/07 09:12:40;;;;;;;5.60;2.33;;;19.30;99.90;;;;;;5046377;28;20808;-71
2021/08/07 09:15:24;;;;;;;6.65;2.42;;;19.30;99.90;;;;;;5046607;28;20421;-74
2021/08/07 09:17:50;;;;;;;6.43;2.53;;;19.40;99.90;;;;;;5046251;28;20065;-71
2021/08/07 09:20:28;;;;;;;9.15;2.63;;;19.40;99.90;;;;;;5046282;28;20037;-69
2021/08/07 09:22:54;;;;;;;4.65;2.67;;;19.60;99.90;;;;;;5044565;28;20089;-69
2021/08/07 09:25:23;;;;;;;5.78;1.63;;;19.50;99.90;;;;;;5045975;28;20394;-69
2021/08/07 09:27:52;;;;;;;3.38;1.98;;;19.50;99.90;;;;;;5046293;28;20029;-71
2021/08/07 09:30:18;;;;;;;3.50;1.67;;;19.50;99.90;;;;;;5045905;28;20036;-72
2021/08/07 09:32:48;;;;;;;2.42;1.45;;;19.60;99.90;;;;;;5044660;28;20021;-73
2021/08/07 09:35:17;;;;;;;7.13;1.95;;;19.70;99.90;;;;;;5044643;28;20030;-68
2021/08/07 09:37:42;;;;;;;2.13;1.23;;;19.80;99.90;;;;;;5045590;28;20081;-73
2021/08/07 09:40:11;;;;;;;3.83;1.73;;;19.80;99.90;;;;;;5046089;28;20052;-71
2021/08/07 09:42:53;;;;;;;3.85;1.52;;;19.80;99.90;;;;;;5045954;28;20033;-70
2021/08/07 09:45:23;;;;;;;2.20;1.50;;;19.70;99.90;;;;;;5045819;28;20037;-72
2021/08/07 09:48:18;;;;;;;2.15;1.30;;;19.60;99.90;;;;;;5045154;28;20054;-69
2021/08/07 09:50:45;;;;;;;3.50;1.73;;;19.60;99.90;;;;;;5046277;28;20060;-70
2021/08/07 09:53:27;;;;;;;1.73;1.35;;;19.50;99.90;;;;;;5042953;28;20048;-71
2021/08/07 09:56:00;;;;;;;3.38;1.60;;;19.60;99.90;;;;;;5045109;28;20470;-70
2021/08/07 09:58:25;;;;;;;9.38;1.80;;;19.80;99.90;;;;;;5044562;28;20035;-70
2021/08/07 10:00:51;;;;;;;1.77;1.20;;;19.90;99.90;;;;;;5045502;28;20049;-69
2021/08/07 10:03:20;;;;;;;7.57;1.27;;;20.10;99.90;;;;;;5044134;28;20029;-72
2021/08/07 10:05:48;;;;;;;1.98;1.00;;;20.20;99.90;;;;;;5043982;28;20039;-68
2021/08/07 10:08:14;;;;;;;2.45;1.17;;;20.30;99.90;;;;;;5045273;28;20040;-68
2021/08/07 10:10:41;;;;;;;2.38;1.38;;;20.30;99.90;;;;;;5045414;28;20045;-72
2021/08/07 10:13:08;;;;;;;3.65;1.52;;;20.20;99.90;;;;;;5045502;28;20036;-69
2021/08/07 10:15:36;;;;;;;3.42;1.20;;;20.20;99.90;;;;;;5045195;28;20041;-68
2021/08/07 10:18:02;;;;;;;2.28;1.23;;;20.10;99.90;;;;;;5045273;28;20026;-71
2021/08/07 10:20:28;;;;;;;2.65;1.20;;;20.30;99.90;;;;;;5045289;28;20029;-73
2021/08/07 10:22:55;;;;;;;7.32;1.15;;;20.50;99.90;;;;;;5044722;28;20034;-69
2021/08/07 10:25:22;;;;;;;2.88;1.30;;;20.70;99.90;;;;;;5044901;28;20017;-71
2021/08/07 10:27:55;;;;;;;2.72;1.30;;;20.90;99.90;;;;;;5045167;28;20076;-71
2021/08/07 10:30:21;;;;;;;2.72;1.23;;;21.00;99.90;;;;;;5044944;28;20037;-69
2021/08/07 10:32:49;;;;;;;1.70;1.10;;;20.90;99.90;;;;;;5044126;28;20021;-71
2021/08/07 10:35:15;;;;;;;3.55;1.10;;;20.90;99.90;;;;;;5043648;28;20030;-73
2021/08/07 10:37:41;;;;;;;3.67;1.63;;;20.80;99.90;;;;;;5043727;28;20025;-71
2021/08/07 10:40:10;;;;;;;3.97;1.40;;;20.80;99.90;;;;;;5043718;28;20030;-69
2021/08/07 10:42:37;;;;;;;5.03;1.05;;;20.80;99.90;;;;;;5043534;28;20026;-73
2021/08/07 10:45:07;;;;;;;1.85;0.80;;;21.00;99.90;;;;;;5044893;28;20072;-68
2021/08/07 10:47:47;;;;;;;1.35;1.08;;;21.30;99.90;;;;;;5045029;28;20033;-68
2021/08/07 10:50:26;;;;;;;2.17;1.25;;;21.70;99.90;;;;;;5044951;28;20040;-69
2021/08/07 10:52:57;;;;;;;1.17;0.90;;;22.10;99.90;;;;;;5044575;28;20025;-73
2021/08/07 10:55:41;;;;;;;3.03;1.00;;;22.30;99.90;;;;;;5044641;28;20040;-71
2021/08/07 10:58:46;;;;;;;1.90;0.95;;;22.30;99.90;;;;;;5044658;28;20041;-73
2021/08/07 11:01:27;;;;;;;11.18;1.58;;;22.20;99.90;;;;;;5044710;28;20025;-70
2021/08/07 11:04:01;;;;;;;1.65;1.08;;;22.00;99.90;;;;;;5043551;28;20110;-70
2021/08/07 11:06:42;;;;;;;1.33;1.17;;;21.90;99.90;;;;;;5043245;28;20033;-70
2021/08/07 11:09:29;;;;;;;1.95;1.15;;;21.60;99.90;;;;;;5043431;28;20331;-74
2021/08/07 11:12:07;;;;;;;3.15;1.58;;;21.40;99.90;;;;;;5044611;28;20385;-70
2021/08/07 11:14:35;;;;;;;2.08;1.50;;;21.30;99.90;;;;;;5044441;28;20029;-68
2021/08/07 11:17:04;;;;;;;1.75;1.42;;;21.10;99.90;;;;;;5044191;28;20136;-71
2021/08/07 11:19:49;;;;;;;2.47;1.65;;;20.90;99.90;;;;;;5044079;28;20029;-69
2021/08/07 11:22:44;;;;;;;1.95;1.55;;;20.70;99.90;;;;;;5044377;28;20048;-73
2021/08/07 11:25:21;;;;;;;3.17;2.35;;;20.60;99.90;;;;;;5019170;28;20041;-72
2021/08/07 11:30:27;;;;;;;3.97;2.75;;;20.40;99.90;;;;;;5044366;28;20075;-76
2021/08/07 11:32:56;;;;;;;5.78;2.85;;;20.40;99.90;;;;;;5044245;28;20022;-72
2021/08/07 11:35:35;;;;;;;4.70;2.75;;;20.40;99.90;;;;;;5044207;28;20028;-70
2021/08/07 11:38:06;;;;;;;3.75;2.42;;;20.40;99.90;;;;;;5044130;28;20033;-68
2021/08/07 11:40:42;;;;;;;2.78;1.83;;;20.40;99.90;;;;;;5042851;28;20129;-71
2021/08/07 11:43:14;;;;;;;3.83;2.17;;;20.60;99.90;;;;;;5044426;28;20033;-70
2021/08/07 11:45:40;;;;;;;3.10;2.25;;;20.80;99.90;;;;;;5043204;28;20052;-68
2021/08/07 11:48:06;;;;;;;4.53;2.50;;;21.10;99.90;;;;;;5044659;28;20056;-67
2021/08/07 11:50:33;;;;;;;3.35;2.58;;;21.40;99.90;;;;;;5042871;28;20037;-73
2021/08/07 11:52:59;;;;;;;3.88;2.55;;;21.80;99.90;;;;;;5042083;28;20038;-74
2021/08/07 11:55:34;;;;;;;3.45;2.42;;;22.00;99.90;;;;;;5044123;28;20033;-68
2021/08/07 11:58:05;;;;;;;2.92;2.15;;;22.10;99.90;;;;;;5042681;28;20036;-71
2021/08/07 12:00:32;;;;;;;3.70;2.53;;;22.20;99.90;;;;;;5043986;28;20036;-67
2021/08/07 12:03:10;;;;;;;3.63;2.67;;;22.20;99.90;;;;;;5042717;28;20093;-73
2021/08/07 12:05:38;;;;;;;4.30;2.63;;;22.30;99.90;;;;;;5043016;28;20079;-68
2021/08/07 12:08:04;;;;;;;2.15;1.88;;;22.20;99.90;;;;;;5042811;28;20041;-71
2021/08/07 12:10:30;;;;;;;5.10;2.10;;;22.30;99.90;;;;;;5042684;28;20410;-70
2021/08/07 12:12:55;;;;;;;2.67;1.67;;;22.40;99.90;;;;;;5044067;28;20030;-68
2021/08/07 12:15:21;;;;;;;2.15;1.40;;;22.80;99.90;;;;;;5046679;28;20029;-70
2021/08/07 12:17:48;;;;;;;3.90;2.20;;;22.70;99.90;;;;;;5047524;28;20034;-68
2021/08/07 12:20:14;;;;;;;6.82;2.78;;;22.70;99.90;;;;;;5047346;28;20528;-69
2021/08/07 12:23:01;;;;;;;4.78;1.63;;;22.60;99.90;;;;;;5047386;28;20057;-73
2021/08/07 12:25:29;;;;;;;4.07;1.95;;;22.70;99.90;;;;;;5047691;28;20088;-69
2021/08/07 12:28:16;;;;;;;2.97;1.70;;;22.70;99.90;;;;;;5047518;28;20085;-68
2021/08/07 12:31:14;;;;;;;4.25;2.25;;;22.70;99.90;;;;;;5047633;28;20045;-69
2021/08/07 12:33:43;;;;;;;3.83;1.90;;;22.60;99.90;;;;;;5035813;28;20061;-67
2021/08/07 12:36:12;;;;;;;2.05;1.40;;;22.50;99.90;;;;;;5047393;28;20068;-67
2021/08/07 12:38:43;;;;;;;3.13;1.90;;;22.40;99.90;;;;;;5047142;28;20029;-67
2021/08/07 12:41:09;;;;;;;4.63;1.67;;;22.20;99.90;;;;;;5047299;28;20053;-70
2021/08/07 12:43:36;;;;;;;5.60;1.98;;;22.20;99.90;;;;;;5047241;28;20030;-73
2021/08/07 12:46:12;;;;;;;2.90;1.65;;;22.30;99.90;;;;;;5045605;28;20108;-71
2021/08/07 12:48:49;;;;;;;1.70;1.30;;;22.50;99.90;;;;;;5047027;28;20041;-72
2021/08/07 12:51:23;;;;;;;2.55;1.65;;;22.60;99.90;;;;;;5045442;28;20375;-71
2021/08/07 12:53:50;;;;;;;4.30;2.08;;;22.70;99.90;;;;;;5046691;28;20053;-72
2021/08/07 12:56:17;;;;;;;2.00;1.30;;;23.10;99.90;;;;;;5061832;28;20032;-73